Historyczne dane pomiarowe

Dodano dane terminowe – wersja testowa.

Dane z okresu 1951-2019

Wersja bazy: 1.34 [2019-03-16, lista zmian], aktualizacja planowana na 2019-04-15

Dane meteo z obszaru Polski uzyskane na podstawie danych udostępnionych przez Instytut Meteorologii i Gospodarki Wodnej – Państwowy Instytut Badawczy.

 

Wybierz Datę:    

       

TemperaturaWilgotnośćZachmurzenieWiatrCiśnienieWidzialnośćZjawiska
 Data    tng td wb rh cc ccl cl cm ch dir g1 g2 mslp ppp      
1994-06-16 00:00:00 9.5--- 5.2 7.475wxwxwx0wx--1009.4 996.2 0.0---wx
1994-06-16 01:00:00 9.7--- 5.0 7.473wxwxwx2wx--1008.8 995.6----wx
1994-06-16 02:00:00 10.1--- 4.8 7.569wxwxwx3wx--1008.1 995.0----wx
1994-06-16 03:00:00 10.5--- 5.0 7.869wxwxwx3wx--1007.5 994.4----wx
1994-06-16 04:00:00 10.9--- 6.2 8.573wxwxwxwx5wx--1007.0 993.9----wx
1994-06-16 05:00:00 12.0--- 6.3 9.168wxwxwxwxwx4wx--1006.6 993.6----wx
1994-06-16 06:00:00 11.9--- 6.4 9.169wxwxwxwxwx4wx--1006.5 993.5 0.0---wx
1994-06-16 07:00:00 12.8--- 7.5 10.070wxwxwx6wx--1006.4 993.4----wx
1994-06-16 08:00:00 13.6--- 6.7 10.063wxwxwx5wx--1006.4 993.4----wx
1994-06-16 09:00:00 13.5--- 5.4 9.458wxwxwx6wx--1006.3 993.3----wx
1994-06-16 10:00:00 12.0--- 8.2 10.078wxwxwx6wx--1006.3 993.3----wx
1994-06-16 11:00:00 14.0--- 8.9 11.271wxwxwx7wx14-1005.8 992.9----wx
1994-06-16 12:00:00 12.8--- 9.5 11.080wxwxwx8wx13-1005.9 992.9 0.2---wxw1
1994-06-16 13:00:00 11.2--- 7.8 9.479wxwxwx6wx12-1006.5 993.4----wx
1994-06-16 14:00:00 13.5--- 8.7 10.973wxwxwxwx5wx--1006.1 993.1----wx
1994-06-16 15:00:00 12.6--- 5.9 9.264wxwxwx7wx14-1006.4 993.4----wxw1
1994-06-16 16:00:00 10.8--- 7.7 9.281wxwxwx4wx--1006.6 993.5----wx
1994-06-16 17:00:00 10.6--- 9.1 9.891wxwxwx4wx--1006.6 993.5----wx
1994-06-16 18:00:00 10.8--- 8.9 9.888wxwxwx3wx--1006.5 993.4 0.6---wxw1
1994-06-16 19:00:00 10.6--- 9.3 9.992wxwxwxwx3wx--1006.7 993.6----wx
1994-06-16 20:00:00 9.8--- 8.1 8.989wxwxwxwx3wx--1006.8 993.7----wx
1994-06-16 21:00:00 9.8--- 8.3 9.090wxwxwxwx4wx--1007.0 993.9----wxw1
1994-06-16 22:00:00 9.6--- 8.5 9.093wxwxwx4wx--1007.0 993.9----wxw1
1994-06-16 23:00:00 9.6--- 8.7 9.194wxwxwx4wx--1007.2 994.1----wx

 

Źródłem pochodzenia danych jest Instytut Meteorologii i Gospodarki Wodnej – Państwowy Instytut Badawczy. Dane Instytutu Meteorologii i Gospodarki Wodnej – Państwowego Instytutu Badawczego zostały przetworzone.

Dane źródłowe można odnaleźć na stronie https://dane.imgw.pl